Terminal Aerodrome Forecast
Issued by NWS Wilmington, OH

Current Version | Previous Version | Graphics & Text | Print | Product List | Glossary On
Versions: 1 2 3 4 5 6 7 8 9 10 11 12 13
687
FTUS41 KILN 171737
TAFCMH
TAF
KCMH 171737Z 1718/1818 VRB02KT P6SM SCT040 BKN090
     FM172100 01006KT P6SM VCSH BKN050
     FM180000 VRB03KT P6SM FEW050
     FM180900 VRB03KT 3SM BR SKC
     FM181300 VRB04KT P6SM SKC
     FM181500 21004KT P6SM SCT050=

USA.gov is the U.S. government's official web portal to all federal, state and local government web resources and services.